Flight Track Log - Related Links

Times and Time Zones

All times are in EDT time to prevent confusion due to time zone crossing. See the ASQ3845 flight status page for this flight to view local times or setup timezone preferences in your user account.

Time Position Orientation Groundspeed Altitude Reporting Facility
EDT Latitude Longitude Course Direction KTS MPH feet Rate Location/Type
Sat 06:21:53 PM 27.7483 -97.4822 131° Southeast 162 186 2,200  Level Houston Center
Sat 06:22:54 PM 27.7356 -97.4225 104° East 243 280 4,000 1,917 Climbing Houston Center
Sat 06:23:05 PM 27.7458 -97.4092 49° Northeast 249 287 4,500 2,712 Climbing Houston Center
Sat 06:24:00 PM 28.0053 -97.3879 19° North  Level FlightAware Approximate
Sat 06:24:07 PM 27.8050 -97.3467 43° Northeast 283 326 7,300  Level Houston Center
Sat 06:25:00 PM 28.0858 -97.3488 24° Northeast  Level FlightAware Approximate
Sat 06:25:09 PM 27.8883 -97.3417 North 293 337 9,800  Level Houston Center
Sat 06:26:00 PM 28.1655 -97.3078 27° Northeast  Level FlightAware Approximate
Sat 06:26:11 PM 27.9789 -97.3361 North 319 367 11,200  Level Houston Center
Sat 06:27:12 PM 28.0847 -97.3289 North 371 427 12,600 1,756 Climbing Houston Center
Sat 06:28:14 PM 28.1886 -97.3000 14° North 380 437 14,800 2,419 Climbing Houston Center
Sat 06:29:16 PM 28.2869 -97.2517 23° Northeast 348 400 17,600 2,032 Climbing Houston Center
Sat 06:30:18 PM 28.3761 -97.2078 23° Northeast 344 396 19,000 683 Climbing Houston Center
Sat 06:31:19 PM 28.4703 -97.2222 352° North 354 407 19,000  Level Houston Center
Sat 06:32:21 PM 28.5475 -97.2553 339° North 331 381 19,000  Level Houston Center
Sat 06:33:23 PM 28.6339 -97.2928 339° North 329 379 19,000  Level Houston Center
Sat 06:34:25 PM 28.7228 -97.3303 340° North 338 389 19,000  Level Houston Center
Sat 06:35:26 PM 28.8125 -97.3692 339° North 340 391 19,000  Level Houston Center
Sat 06:36:28 PM 28.9367 -97.3861 353° North 385 443 19,000  Level Houston Center
Sat 06:37:30 PM 29.0336 -97.3342 25° Northeast 391 450 19,000 -48 Level Houston Center
Sat 06:38:32 PM 29.0900 -97.2167 61° Northeast 420 483 18,900  Descending Houston Center
Sat 06:39:33 PM 29.1411 -97.1003 63° Northeast 411 473 19,000 49 Climbing Houston Center
Sat 06:40:35 PM 29.1900 -96.9892 63° Northeast 399 459 19,000  Level Houston Center
Sat 06:41:37 PM 29.2472 -96.8572 64° Northeast 396 456 19,000 -145 Level Houston Center
Sat 06:42:39 PM 29.2953 -96.7464 64° Northeast 402 463 18,700 -968 Descending Houston Center
Sat 06:43:41 PM 29.3436 -96.6372 63° Northeast 394 453 17,000 -1,783 Descending Houston Center
Sat 06:44:57 PM 29.4086 -96.4839 64° Northeast 392 451 14,600 -1,805 Descending Houston Center
Sat 06:45:44 PM 29.4392 -96.4153 63° Northeast 392 451 13,300 -1,881 Descending Houston Center
Sat 06:46:04 PM 29.4633 -96.3581 64° Northeast 382 440 12,500 -2,032 Descending Houston Center
Sat 06:46:46 PM 29.4947 -96.2878 63° Northeast 377 434 11,200 -1,745 Descending Houston Center
Sat 06:46:59 PM 29.5019 -96.2700 65° Northeast 362 417 10,900 -1,161 Descending Houston Center
Sat 06:47:48 PM 29.5369 -96.1872 64° Northeast 357 411 10,000 -410 Descending Houston Center
Sat 06:48:56 PM 29.5922 -96.0750 60° Northeast 346 398 10,100  Climbing Houston Center
Sat 06:49:52 PM 29.6325 -95.9969 59° Northeast 338 389 10,000 -750 Descending Houston Center
Sat 06:51:04 PM 29.7019 -95.9375 37° Northeast 261 300 8,500 -1,308 Descending Houston Center
Sat 06:52:05 PM 29.7833 -95.9306 North 275 316 7,100 -796 Descending Houston Center
Sat 06:52:57 PM 29.8347 -95.9239 North 271 312 7,000 -90 Descending Houston Center
Sat 06:53:12 PM 29.8664 -95.9211 North 264 304 7,000  Level Houston Center
Sat 06:53:59 PM 29.9067 -95.9128 10° North 264 304 7,000 -154 Level Houston Center
Sat 06:55:09 PM 29.9772 -95.8433 40° Northeast 251 289 6,700 -677 Descending Houston Center
Sat 06:56:03 PM 29.9964 -95.7819 70° East 242 278 5,600 -1,086 Descending Houston Center
Sat 06:57:05 PM 29.9914 -95.7097 95° East 229 264 4,600 -871 Descending Houston Center
Sat 06:58:07 PM 29.9925 -95.6372 89° East 227 261 3,800 -774 Descending Houston Center
Sat 06:59:09 PM 29.9922 -95.5658 90° East 223 257 3,000 -629 Descending Houston Center
Sat 07:00:11 PM 29.9931 -95.4969 89° East 222 255 2,500 -683 Descending Houston Center
Sat 07:01:12 PM 29.9931 -95.4344 90° East 210 242 1,600 -850 Descending Houston Center
Sat 07:02:18 PM 29.9928 -95.3856 90° East 132 152 700 -532 Descending Houston Center
Sat 07:03:16 PM 29.9931 -95.3481 90° East 141 162 500 -207 Descending Houston Center

Login

Don't have an account? Register now (free) for customized features, flight alerts, and more!